sensor_id;sensor_type;location;lat;lon;timestamp;P1;durP1;ratioP1;P2;durP2;ratioP2
5219;SDS011;2629;50.768;7.308;2022-09-13T00:02:09;7.00;;;4.90;;
5219;SDS011;2629;50.768;7.308;2022-09-13T00:04:37;15.63;;;4.07;;
5219;SDS011;2629;50.768;7.308;2022-09-13T00:07:07;6.10;;;4.43;;
5219;SDS011;2629;50.768;7.308;2022-09-13T00:09:36;5.57;;;4.30;;
5219;SDS011;2629;50.768;7.308;2022-09-13T00:12:09;5.50;;;3.77;;
5219;SDS011;2629;50.768;7.308;2022-09-13T00:14:38;10.67;;;4.20;;
5219;SDS011;2629;50.768;7.308;2022-09-13T00:17:07;9.97;;;3.87;;
5219;SDS011;2629;50.768;7.308;2022-09-13T00:19:35;6.80;;;4.13;;
5219;SDS011;2629;50.768;7.308;2022-09-13T00:22:04;7.77;;;4.60;;
5219;SDS011;2629;50.768;7.308;2022-09-13T00:24:32;6.17;;;4.03;;
5219;SDS011;2629;50.768;7.308;2022-09-13T00:27:01;7.67;;;4.17;;
5219;SDS011;2629;50.768;7.308;2022-09-13T00:29:31;5.07;;;3.83;;
5219;SDS011;2629;50.768;7.308;2022-09-13T00:32:00;5.60;;;4.20;;
5219;SDS011;2629;50.768;7.308;2022-09-13T00:34:29;5.50;;;3.70;;
5219;SDS011;2629;50.768;7.308;2022-09-13T00:36:57;5.77;;;4.10;;
5219;SDS011;2629;50.768;7.308;2022-09-13T00:39:26;6.93;;;4.30;;
5219;SDS011;2629;50.768;7.308;2022-09-13T00:41:54;6.10;;;4.30;;
5219;SDS011;2629;50.768;7.308;2022-09-13T00:47:08;5.57;;;4.07;;
5219;SDS011;2629;50.768;7.308;2022-09-13T00:49:38;5.57;;;4.40;;
5219;SDS011;2629;50.768;7.308;2022-09-13T00:52:09;5.70;;;4.03;;
5219;SDS011;2629;50.768;7.308;2022-09-13T00:54:41;5.03;;;3.87;;
5219;SDS011;2629;50.768;7.308;2022-09-13T00:57:10;7.73;;;4.30;;
5219;SDS011;2629;50.768;7.308;2022-09-13T00:59:42;5.53;;;3.70;;
5219;SDS011;2629;50.768;7.308;2022-09-13T01:02:15;8.43;;;4.50;;
5219;SDS011;2629;50.768;7.308;2022-09-13T01:04:44;6.13;;;3.70;;
5219;SDS011;2629;50.768;7.308;2022-09-13T01:07:14;5.97;;;4.00;;
5219;SDS011;2629;50.768;7.308;2022-09-13T01:09:44;5.43;;;4.13;;
5219;SDS011;2629;50.768;7.308;2022-09-13T01:12:15;7.60;;;3.93;;
5219;SDS011;2629;50.768;7.308;2022-09-13T01:14:44;7.80;;;4.23;;
5219;SDS011;2629;50.768;7.308;2022-09-13T01:17:15;5.93;;;3.40;;
5219;SDS011;2629;50.768;7.308;2022-09-13T01:19:43;13.97;;;4.67;;
5219;SDS011;2629;50.768;7.308;2022-09-13T01:27:59;7.43;;;4.00;;
5219;SDS011;2629;50.768;7.308;2022-09-13T01:30:34;6.00;;;4.57;;
5219;SDS011;2629;50.768;7.308;2022-09-13T01:33:07;6.57;;;4.77;;
5219;SDS011;2629;50.768;7.308;2022-09-13T01:35:41;5.33;;;3.90;;
5219;SDS011;2629;50.768;7.308;2022-09-13T01:38:15;6.50;;;4.30;;
5219;SDS011;2629;50.768;7.308;2022-09-13T01:40:49;7.80;;;4.60;;
5219;SDS011;2629;50.768;7.308;2022-09-13T01:43:24;5.17;;;3.80;;
5219;SDS011;2629;50.768;7.308;2022-09-13T01:46:01;7.70;;;4.00;;
5219;SDS011;2629;50.768;7.308;2022-09-13T01:48:33;10.60;;;4.93;;
5219;SDS011;2629;50.768;7.308;2022-09-13T01:51:04;8.63;;;6.10;;
5219;SDS011;2629;50.768;7.308;2022-09-13T01:53:39;10.90;;;4.60;;
5219;SDS011;2629;50.768;7.308;2022-09-13T01:56:10;6.07;;;3.87;;
5219;SDS011;2629;50.768;7.308;2022-09-13T01:58:40;8.40;;;4.53;;
5219;SDS011;2629;50.768;7.308;2022-09-13T02:01:12;4.87;;;3.87;;
5219;SDS011;2629;50.768;7.308;2022-09-13T02:03:44;6.73;;;4.50;;
5219;SDS011;2629;50.768;7.308;2022-09-13T02:06:16;6.00;;;4.20;;
5219;SDS011;2629;50.768;7.308;2022-09-13T02:08:48;7.30;;;4.10;;
5219;SDS011;2629;50.768;7.308;2022-09-13T02:11:18;6.23;;;4.37;;
5219;SDS011;2629;50.768;7.308;2022-09-13T02:13:48;6.97;;;4.20;;
5219;SDS011;2629;50.768;7.308;2022-09-13T02:16:22;9.20;;;4.40;;
5219;SDS011;2629;50.768;7.308;2022-09-13T02:18:54;9.30;;;4.60;;
5219;SDS011;2629;50.768;7.308;2022-09-13T02:21:26;5.60;;;4.40;;
5219;SDS011;2629;50.768;7.308;2022-09-13T02:23:57;7.00;;;4.20;;
5219;SDS011;2629;50.768;7.308;2022-09-13T02:26:28;8.50;;;4.00;;
5219;SDS011;2629;50.768;7.308;2022-09-13T02:28:58;9.30;;;4.90;;
5219;SDS011;2629;50.768;7.308;2022-09-13T02:31:31;9.07;;;4.10;;
5219;SDS011;2629;50.768;7.308;2022-09-13T02:34:03;7.30;;;4.70;;
5219;SDS011;2629;50.768;7.308;2022-09-13T02:36:35;6.93;;;4.87;;
5219;SDS011;2629;50.768;7.308;2022-09-13T02:39:07;6.60;;;3.70;;
5219;SDS011;2629;50.768;7.308;2022-09-13T02:41:38;7.53;;;5.00;;
5219;SDS011;2629;50.768;7.308;2022-09-13T02:44:12;8.03;;;4.13;;
5219;SDS011;2629;50.768;7.308;2022-09-13T02:49:32;5.20;;;3.90;;
5219;SDS011;2629;50.768;7.308;2022-09-13T02:52:04;6.87;;;4.50;;
5219;SDS011;2629;50.768;7.308;2022-09-13T02:54:36;7.43;;;4.43;;
5219;SDS011;2629;50.768;7.308;2022-09-13T02:57:07;8.23;;;4.17;;
5219;SDS011;2629;50.768;7.308;2022-09-13T02:59:38;6.90;;;4.93;;
5219;SDS011;2629;50.768;7.308;2022-09-13T03:02:07;7.13;;;5.03;;
5219;SDS011;2629;50.768;7.308;2022-09-13T03:04:38;7.10;;;5.20;;
5219;SDS011;2629;50.768;7.308;2022-09-13T03:07:09;7.60;;;4.70;;
5219;SDS011;2629;50.768;7.308;2022-09-13T03:09:38;7.37;;;5.30;;
5219;SDS011;2629;50.768;7.308;2022-09-13T03:12:14;9.27;;;5.27;;
5219;SDS011;2629;50.768;7.308;2022-09-13T03:14:48;7.27;;;4.53;;
5219;SDS011;2629;50.768;7.308;2022-09-13T03:17:25;7.90;;;5.13;;
5219;SDS011;2629;50.768;7.308;2022-09-13T03:20:02;6.20;;;5.07;;
5219;SDS011;2629;50.768;7.308;2022-09-13T03:25:29;6.17;;;4.20;;
5219;SDS011;2629;50.768;7.308;2022-09-13T03:28:01;7.00;;;4.07;;
5219;SDS011;2629;50.768;7.308;2022-09-13T03:30:33;8.50;;;4.40;;
5219;SDS011;2629;50.768;7.308;2022-09-13T03:33:04;7.13;;;4.43;;
5219;SDS011;2629;50.768;7.308;2022-09-13T03:35:36;7.23;;;4.10;;
5219;SDS011;2629;50.768;7.308;2022-09-13T03:38:07;7.40;;;4.40;;
5219;SDS011;2629;50.768;7.308;2022-09-13T03:40:38;7.63;;;4.57;;
5219;SDS011;2629;50.768;7.308;2022-09-13T03:43:09;7.50;;;4.33;;
5219;SDS011;2629;50.768;7.308;2022-09-13T03:45:41;6.07;;;4.80;;
5219;SDS011;2629;50.768;7.308;2022-09-13T03:48:10;6.43;;;4.40;;
5219;SDS011;2629;50.768;7.308;2022-09-13T03:50:40;7.20;;;4.80;;
5219;SDS011;2629;50.768;7.308;2022-09-13T03:53:10;7.20;;;4.57;;
5219;SDS011;2629;50.768;7.308;2022-09-13T03:55:39;6.60;;;4.50;;
5219;SDS011;2629;50.768;7.308;2022-09-13T03:58:09;9.27;;;5.00;;
5219;SDS011;2629;50.768;7.308;2022-09-13T04:00:38;6.70;;;4.50;;
5219;SDS011;2629;50.768;7.308;2022-09-13T04:03:07;11.10;;;5.40;;
5219;SDS011;2629;50.768;7.308;2022-09-13T04:05:36;5.90;;;4.60;;
5219;SDS011;2629;50.768;7.308;2022-09-13T04:08:06;7.53;;;4.63;;
5219;SDS011;2629;50.768;7.308;2022-09-13T04:10:35;13.20;;;4.80;;
5219;SDS011;2629;50.768;7.308;2022-09-13T04:13:04;7.37;;;5.53;;
5219;SDS011;2629;50.768;7.308;2022-09-13T04:15:32;12.40;;;5.50;;
5219;SDS011;2629;50.768;7.308;2022-09-13T04:18:01;10.10;;;4.80;;
5219;SDS011;2629;50.768;7.308;2022-09-13T04:20:29;6.20;;;4.90;;
5219;SDS011;2629;50.768;7.308;2022-09-13T04:22:58;8.90;;;5.63;;
5219;SDS011;2629;50.768;7.308;2022-09-13T04:25:28;7.87;;;4.80;;
5219;SDS011;2629;50.768;7.308;2022-09-13T04:27:56;8.50;;;5.13;;
5219;SDS011;2629;50.768;7.308;2022-09-13T04:30:25;8.13;;;5.10;;
5219;SDS011;2629;50.768;7.308;2022-09-13T04:32:54;6.77;;;5.27;;
5219;SDS011;2629;50.768;7.308;2022-09-13T04:35:25;6.70;;;4.67;;
5219;SDS011;2629;50.768;7.308;2022-09-13T04:37:54;7.70;;;5.53;;
5219;SDS011;2629;50.768;7.308;2022-09-13T04:40:23;7.30;;;4.40;;
5219;SDS011;2629;50.768;7.308;2022-09-13T04:42:53;7.03;;;4.90;;
5219;SDS011;2629;50.768;7.308;2022-09-13T04:45:21;6.10;;;4.30;;
5219;SDS011;2629;50.768;7.308;2022-09-13T04:47:51;5.80;;;4.10;;
5219;SDS011;2629;50.768;7.308;2022-09-13T04:50:19;6.90;;;4.80;;
5219;SDS011;2629;50.768;7.308;2022-09-13T04:52:53;10.20;;;4.93;;
5219;SDS011;2629;50.768;7.308;2022-09-13T04:55:22;6.27;;;5.03;;
5219;SDS011;2629;50.768;7.308;2022-09-13T04:57:53;11.63;;;4.50;;
5219;SDS011;2629;50.768;7.308;2022-09-13T05:00:22;8.80;;;5.07;;
5219;SDS011;2629;50.768;7.308;2022-09-13T05:02:54;7.20;;;4.50;;
5219;SDS011;2629;50.768;7.308;2022-09-13T05:05:23;6.67;;;4.20;;
5219;SDS011;2629;50.768;7.308;2022-09-13T05:07:55;9.23;;;4.97;;
5219;SDS011;2629;50.768;7.308;2022-09-13T05:10:23;7.37;;;4.77;;
5219;SDS011;2629;50.768;7.308;2022-09-13T05:12:53;10.07;;;4.87;;
5219;SDS011;2629;50.768;7.308;2022-09-13T05:15:22;8.17;;;6.07;;
5219;SDS011;2629;50.768;7.308;2022-09-13T05:17:50;10.23;;;4.80;;
5219;SDS011;2629;50.768;7.308;2022-09-13T05:20:19;14.70;;;5.70;;
5219;SDS011;2629;50.768;7.308;2022-09-13T05:22:47;10.00;;;4.97;;
5219;SDS011;2629;50.768;7.308;2022-09-13T05:25:16;9.73;;;4.90;;
5219;SDS011;2629;50.768;7.308;2022-09-13T05:27:50;9.40;;;4.93;;
5219;SDS011;2629;50.768;7.308;2022-09-13T05:30:20;9.43;;;5.77;;
5219;SDS011;2629;50.768;7.308;2022-09-13T05:32:49;8.73;;;5.20;;
5219;SDS011;2629;50.768;7.308;2022-09-13T05:35:18;6.07;;;4.70;;
5219;SDS011;2629;50.768;7.308;2022-09-13T05:37:47;7.97;;;5.40;;
5219;SDS011;2629;50.768;7.308;2022-09-13T05:40:16;8.73;;;5.43;;
5219;SDS011;2629;50.768;7.308;2022-09-13T05:42:45;6.83;;;5.20;;
5219;SDS011;2629;50.768;7.308;2022-09-13T05:45:13;7.43;;;5.37;;
5219;SDS011;2629;50.768;7.308;2022-09-13T05:47:43;9.20;;;4.47;;
5219;SDS011;2629;50.768;7.308;2022-09-13T05:50:12;6.47;;;4.90;;
5219;SDS011;2629;50.768;7.308;2022-09-13T05:53:00;10.37;;;4.80;;
5219;SDS011;2629;50.768;7.308;2022-09-13T05:55:29;6.33;;;4.73;;
5219;SDS011;2629;50.768;7.308;2022-09-13T05:57:58;10.43;;;5.00;;
5219;SDS011;2629;50.768;7.308;2022-09-13T06:00:26;11.90;;;4.90;;
5219;SDS011;2629;50.768;7.308;2022-09-13T06:02:58;6.83;;;4.50;;
5219;SDS011;2629;50.768;7.308;2022-09-13T06:05:27;5.70;;;4.13;;
5219;SDS011;2629;50.768;7.308;2022-09-13T06:07:57;8.10;;;4.13;;
5219;SDS011;2629;50.768;7.308;2022-09-13T06:10:26;6.90;;;4.80;;
5219;SDS011;2629;50.768;7.308;2022-09-13T06:12:54;7.30;;;4.63;;
5219;SDS011;2629;50.768;7.308;2022-09-13T06:15:23;7.40;;;3.83;;
5219;SDS011;2629;50.768;7.308;2022-09-13T06:17:52;5.67;;;4.40;;
5219;SDS011;2629;50.768;7.308;2022-09-13T06:20:22;6.97;;;4.90;;
5219;SDS011;2629;50.768;7.308;2022-09-13T06:22:50;6.60;;;4.67;;
5219;SDS011;2629;50.768;7.308;2022-09-13T06:25:19;7.00;;;4.67;;
5219;SDS011;2629;50.768;7.308;2022-09-13T06:27:48;4.80;;;3.73;;
5219;SDS011;2629;50.768;7.308;2022-09-13T06:30:16;7.40;;;5.37;;
5219;SDS011;2629;50.768;7.308;2022-09-13T06:32:45;11.40;;;4.40;;
5219;SDS011;2629;50.768;7.308;2022-09-13T06:35:13;5.83;;;4.10;;
5219;SDS011;2629;50.768;7.308;2022-09-13T06:37:44;6.03;;;4.70;;
5219;SDS011;2629;50.768;7.308;2022-09-13T06:40:13;7.57;;;4.60;;
5219;SDS011;2629;50.768;7.308;2022-09-13T06:42:45;8.70;;;4.20;;
5219;SDS011;2629;50.768;7.308;2022-09-13T06:45:14;6.10;;;4.10;;
5219;SDS011;2629;50.768;7.308;2022-09-13T06:47:42;5.40;;;3.60;;
5219;SDS011;2629;50.768;7.308;2022-09-13T06:50:11;6.07;;;4.60;;
5219;SDS011;2629;50.768;7.308;2022-09-13T06:52:40;6.10;;;4.57;;
5219;SDS011;2629;50.768;7.308;2022-09-13T06:55:10;6.07;;;4.10;;
5219;SDS011;2629;50.768;7.308;2022-09-13T06:57:38;5.87;;;3.80;;
5219;SDS011;2629;50.768;7.308;2022-09-13T07:00:08;6.80;;;4.60;;
5219;SDS011;2629;50.768;7.308;2022-09-13T07:02:36;5.43;;;4.10;;
5219;SDS011;2629;50.768;7.308;2022-09-13T07:05:05;8.90;;;3.73;;
5219;SDS011;2629;50.768;7.308;2022-09-13T07:07:36;5.13;;;3.80;;
5219;SDS011;2629;50.768;7.308;2022-09-13T07:10:05;5.63;;;3.97;;
5219;SDS011;2629;50.768;7.308;2022-09-13T07:12:35;5.40;;;4.00;;
5219;SDS011;2629;50.768;7.308;2022-09-13T07:15:04;5.57;;;3.87;;
5219;SDS011;2629;50.768;7.308;2022-09-13T07:17:33;9.80;;;3.73;;
5219;SDS011;2629;50.768;7.308;2022-09-13T07:20:02;6.17;;;3.80;;
5219;SDS011;2629;50.768;7.308;2022-09-13T07:22:32;10.10;;;4.20;;
5219;SDS011;2629;50.768;7.308;2022-09-13T07:25:01;8.30;;;4.57;;
5219;SDS011;2629;50.768;7.308;2022-09-13T07:27:29;4.47;;;3.97;;
5219;SDS011;2629;50.768;7.308;2022-09-13T07:29:59;9.50;;;3.70;;
5219;SDS011;2629;50.768;7.308;2022-09-13T07:32:30;10.67;;;3.97;;
5219;SDS011;2629;50.768;7.308;2022-09-13T07:34:59;6.30;;;4.17;;
5219;SDS011;2629;50.768;7.308;2022-09-13T07:37:28;7.83;;;4.27;;
5219;SDS011;2629;50.768;7.308;2022-09-13T07:39:57;8.17;;;4.90;;
5219;SDS011;2629;50.768;7.308;2022-09-13T07:42:26;7.03;;;3.97;;
5219;SDS011;2629;50.768;7.308;2022-09-13T07:44:54;4.73;;;3.23;;
5219;SDS011;2629;50.768;7.308;2022-09-13T07:47:24;5.33;;;3.70;;
5219;SDS011;2629;50.768;7.308;2022-09-13T07:49:53;5.90;;;4.20;;
5219;SDS011;2629;50.768;7.308;2022-09-13T07:52:21;6.53;;;4.00;;
5219;SDS011;2629;50.768;7.308;2022-09-13T07:54:50;6.90;;;4.00;;
5219;SDS011;2629;50.768;7.308;2022-09-13T07:57:18;6.33;;;3.47;;
5219;SDS011;2629;50.768;7.308;2022-09-13T07:59:47;6.23;;;4.17;;
5219;SDS011;2629;50.768;7.308;2022-09-13T08:02:17;4.90;;;3.67;;
5219;SDS011;2629;50.768;7.308;2022-09-13T08:04:47;6.20;;;3.73;;
5219;SDS011;2629;50.768;7.308;2022-09-13T08:07:15;8.10;;;3.93;;
5219;SDS011;2629;50.768;7.308;2022-09-13T08:09:44;5.60;;;3.63;;
5219;SDS011;2629;50.768;7.308;2022-09-13T08:12:13;5.20;;;4.17;;
5219;SDS011;2629;50.768;7.308;2022-09-13T08:14:41;5.70;;;4.20;;
5219;SDS011;2629;50.768;7.308;2022-09-13T08:17:10;4.03;;;3.07;;
5219;SDS011;2629;50.768;7.308;2022-09-13T08:19:39;9.37;;;3.80;;
5219;SDS011;2629;50.768;7.308;2022-09-13T08:22:09;5.17;;;3.23;;
5219;SDS011;2629;50.768;7.308;2022-09-13T08:24:37;5.90;;;3.90;;
5219;SDS011;2629;50.768;7.308;2022-09-13T08:27:06;5.30;;;3.57;;
5219;SDS011;2629;50.768;7.308;2022-09-13T08:29:35;5.40;;;3.90;;
5219;SDS011;2629;50.768;7.308;2022-09-13T08:32:04;5.40;;;3.40;;
5219;SDS011;2629;50.768;7.308;2022-09-13T08:34:32;5.00;;;3.60;;
5219;SDS011;2629;50.768;7.308;2022-09-13T08:37:01;6.47;;;3.87;;
5219;SDS011;2629;50.768;7.308;2022-09-13T08:39:31;4.93;;;2.93;;
5219;SDS011;2629;50.768;7.308;2022-09-13T08:42:03;5.73;;;4.23;;
5219;SDS011;2629;50.768;7.308;2022-09-13T08:44:36;6.07;;;4.00;;
5219;SDS011;2629;50.768;7.308;2022-09-13T08:47:21;7.10;;;3.77;;
5219;SDS011;2629;50.768;7.308;2022-09-13T08:49:51;10.33;;;4.23;;
5219;SDS011;2629;50.768;7.308;2022-09-13T08:52:23;6.33;;;4.27;;
5219;SDS011;2629;50.768;7.308;2022-09-13T08:54:57;4.57;;;3.60;;
5219;SDS011;2629;50.768;7.308;2022-09-13T08:57:29;4.70;;;3.30;;
5219;SDS011;2629;50.768;7.308;2022-09-13T09:00:01;7.13;;;4.00;;
5219;SDS011;2629;50.768;7.308;2022-09-13T09:05:18;5.80;;;4.50;;
5219;SDS011;2629;50.768;7.308;2022-09-13T09:07:48;6.03;;;3.97;;
5219;SDS011;2629;50.768;7.308;2022-09-13T09:10:21;6.97;;;4.10;;
5219;SDS011;2629;50.768;7.308;2022-09-13T09:12:52;4.87;;;3.97;;
5219;SDS011;2629;50.768;7.308;2022-09-13T09:15:22;5.70;;;2.90;;
5219;SDS011;2629;50.768;7.308;2022-09-13T09:17:53;5.23;;;3.70;;
5219;SDS011;2629;50.768;7.308;2022-09-13T09:20:27;4.70;;;3.20;;
5219;SDS011;2629;50.768;7.308;2022-09-13T09:22:59;6.93;;;3.03;;
5219;SDS011;2629;50.768;7.308;2022-09-13T09:25:31;6.60;;;3.37;;
5219;SDS011;2629;50.768;7.308;2022-09-13T09:28:05;6.97;;;3.17;;
5219;SDS011;2629;50.768;7.308;2022-09-13T09:30:38;5.70;;;3.57;;
5219;SDS011;2629;50.768;7.308;2022-09-13T09:33:12;4.80;;;3.37;;
5219;SDS011;2629;50.768;7.308;2022-09-13T09:35:49;8.90;;;3.87;;
5219;SDS011;2629;50.768;7.308;2022-09-13T09:41:13;3.87;;;2.77;;
5219;SDS011;2629;50.768;7.308;2022-09-13T09:43:45;3.50;;;2.80;;
5219;SDS011;2629;50.768;7.308;2022-09-13T09:46:16;3.67;;;2.17;;
5219;SDS011;2629;50.768;7.308;2022-09-13T09:48:50;3.43;;;2.23;;
5219;SDS011;2629;50.768;7.308;2022-09-13T09:51:19;4.57;;;2.50;;
5219;SDS011;2629;50.768;7.308;2022-09-13T09:53:52;4.77;;;3.27;;
5219;SDS011;2629;50.768;7.308;2022-09-13T09:56:24;5.77;;;2.43;;
5219;SDS011;2629;50.768;7.308;2022-09-13T09:58:54;3.13;;;2.37;;
5219;SDS011;2629;50.768;7.308;2022-09-13T10:01:23;3.10;;;2.07;;
5219;SDS011;2629;50.768;7.308;2022-09-13T10:04:03;2.90;;;1.80;;
5219;SDS011;2629;50.768;7.308;2022-09-13T10:06:34;6.13;;;2.53;;
5219;SDS011;2629;50.768;7.308;2022-09-13T10:09:04;3.53;;;1.97;;
5219;SDS011;2629;50.768;7.308;2022-09-13T10:11:38;3.20;;;1.90;;
5219;SDS011;2629;50.768;7.308;2022-09-13T10:14:21;3.47;;;1.60;;
5219;SDS011;2629;50.768;7.308;2022-09-13T10:17:00;3.70;;;1.57;;
5219;SDS011;2629;50.768;7.308;2022-09-13T10:19:31;4.30;;;1.97;;
5219;SDS011;2629;50.768;7.308;2022-09-13T10:22:00;6.53;;;2.30;;
5219;SDS011;2629;50.768;7.308;2022-09-13T10:24:29;2.90;;;1.90;;
5219;SDS011;2629;50.768;7.308;2022-09-13T10:26:59;4.30;;;1.67;;
5219;SDS011;2629;50.768;7.308;2022-09-13T10:29:29;3.07;;;1.90;;
5219;SDS011;2629;50.768;7.308;2022-09-13T10:31:59;7.83;;;2.07;;
5219;SDS011;2629;50.768;7.308;2022-09-13T10:34:35;3.13;;;2.13;;
5219;SDS011;2629;50.768;7.308;2022-09-13T10:37:05;3.00;;;1.90;;
5219;SDS011;2629;50.768;7.308;2022-09-13T10:39:47;7.80;;;1.80;;
5219;SDS011;2629;50.768;7.308;2022-09-13T10:42:19;5.10;;;1.90;;
5219;SDS011;2629;50.768;7.308;2022-09-13T10:44:51;5.60;;;1.80;;
5219;SDS011;2629;50.768;7.308;2022-09-13T10:47:22;4.00;;;1.50;;
5219;SDS011;2629;50.768;7.308;2022-09-13T10:49:51;4.40;;;1.87;;
5219;SDS011;2629;50.768;7.308;2022-09-13T10:52:24;3.13;;;1.80;;
5219;SDS011;2629;50.768;7.308;2022-09-13T10:54:54;4.83;;;1.63;;
5219;SDS011;2629;50.768;7.308;2022-09-13T10:57:30;3.03;;;1.60;;
5219;SDS011;2629;50.768;7.308;2022-09-13T11:00:00;4.30;;;2.17;;
5219;SDS011;2629;50.768;7.308;2022-09-13T11:02:39;2.50;;;1.37;;
5219;SDS011;2629;50.768;7.308;2022-09-13T11:05:20;3.37;;;2.20;;
5219;SDS011;2629;50.768;7.308;2022-09-13T11:08:06;6.10;;;1.93;;
5219;SDS011;2629;50.768;7.308;2022-09-13T11:10:41;4.83;;;1.93;;
5219;SDS011;2629;50.768;7.308;2022-09-13T11:13:17;3.47;;;1.70;;
5219;SDS011;2629;50.768;7.308;2022-09-13T11:15:51;3.67;;;1.77;;
5219;SDS011;2629;50.768;7.308;2022-09-13T11:18:38;3.27;;;1.67;;
5219;SDS011;2629;50.768;7.308;2022-09-13T11:21:15;2.30;;;1.40;;
5219;SDS011;2629;50.768;7.308;2022-09-13T11:26:35;4.70;;;2.03;;
5219;SDS011;2629;50.768;7.308;2022-09-13T11:29:12;3.93;;;1.60;;
5219;SDS011;2629;50.768;7.308;2022-09-13T11:31:46;8.37;;;1.93;;
5219;SDS011;2629;50.768;7.308;2022-09-13T11:34:23;2.73;;;1.40;;
5219;SDS011;2629;50.768;7.308;2022-09-13T11:37:10;2.70;;;1.60;;
5219;SDS011;2629;50.768;7.308;2022-09-13T11:39:43;5.13;;;1.70;;
5219;SDS011;2629;50.768;7.308;2022-09-13T11:42:16;3.73;;;2.03;;
5219;SDS011;2629;50.768;7.308;2022-09-13T11:47:55;4.10;;;1.70;;
5219;SDS011;2629;50.768;7.308;2022-09-13T11:50:28;2.60;;;1.60;;
5219;SDS011;2629;50.768;7.308;2022-09-13T11:53:07;4.40;;;2.03;;
5219;SDS011;2629;50.768;7.308;2022-09-13T11:55:40;3.33;;;1.80;;
5219;SDS011;2629;50.768;7.308;2022-09-13T11:58:10;2.83;;;1.80;;
5219;SDS011;2629;50.768;7.308;2022-09-13T12:00:41;3.53;;;1.67;;
5219;SDS011;2629;50.768;7.308;2022-09-13T12:03:14;6.03;;;1.50;;
5219;SDS011;2629;50.768;7.308;2022-09-13T12:05:44;3.80;;;1.47;;
5219;SDS011;2629;50.768;7.308;2022-09-13T12:08:16;3.53;;;1.70;;
5219;SDS011;2629;50.768;7.308;2022-09-13T12:10:46;3.60;;;2.03;;
5219;SDS011;2629;50.768;7.308;2022-09-13T12:13:17;4.00;;;2.00;;
5219;SDS011;2629;50.768;7.308;2022-09-13T12:15:48;3.57;;;1.33;;
5219;SDS011;2629;50.768;7.308;2022-09-13T12:18:20;4.57;;;1.77;;
5219;SDS011;2629;50.768;7.308;2022-09-13T12:20:51;4.30;;;1.63;;
5219;SDS011;2629;50.768;7.308;2022-09-13T12:23:22;2.97;;;1.67;;
5219;SDS011;2629;50.768;7.308;2022-09-13T12:25:53;3.63;;;1.50;;
5219;SDS011;2629;50.768;7.308;2022-09-13T12:28:23;2.80;;;1.47;;
5219;SDS011;2629;50.768;7.308;2022-09-13T12:30:55;6.83;;;1.50;;
5219;SDS011;2629;50.768;7.308;2022-09-13T12:33:26;3.30;;;1.60;;
5219;SDS011;2629;50.768;7.308;2022-09-13T12:36:03;4.20;;;1.57;;
5219;SDS011;2629;50.768;7.308;2022-09-13T12:41:22;5.00;;;1.50;;
5219;SDS011;2629;50.768;7.308;2022-09-13T12:46:58;3.50;;;1.30;;
5219;SDS011;2629;50.768;7.308;2022-09-13T12:49:37;5.87;;;1.50;;
5219;SDS011;2629;50.768;7.308;2022-09-13T12:52:21;3.77;;;1.80;;
5219;SDS011;2629;50.768;7.308;2022-09-13T12:54:58;3.73;;;1.70;;
5219;SDS011;2629;50.768;7.308;2022-09-13T12:57:33;3.43;;;2.07;;
5219;SDS011;2629;50.768;7.308;2022-09-13T13:00:19;4.03;;;1.60;;
5219;SDS011;2629;50.768;7.308;2022-09-13T13:02:50;6.13;;;1.80;;
5219;SDS011;2629;50.768;7.308;2022-09-13T13:05:23;4.47;;;1.20;;
5219;SDS011;2629;50.768;7.308;2022-09-13T13:07:53;7.07;;;2.47;;
5219;SDS011;2629;50.768;7.308;2022-09-13T13:10:25;6.53;;;2.07;;
5219;SDS011;2629;50.768;7.308;2022-09-13T13:12:56;3.93;;;1.77;;
5219;SDS011;2629;50.768;7.308;2022-09-13T13:15:53;3.70;;;1.73;;
5219;SDS011;2629;50.768;7.308;2022-09-13T13:18:25;3.70;;;1.70;;
5219;SDS011;2629;50.768;7.308;2022-09-13T13:23:43;6.30;;;1.70;;
5219;SDS011;2629;50.768;7.308;2022-09-13T13:26:12;3.30;;;1.60;;
5219;SDS011;2629;50.768;7.308;2022-09-13T13:29:10;2.80;;;1.50;;
5219;SDS011;2629;50.768;7.308;2022-09-13T13:31:45;6.73;;;1.40;;
5219;SDS011;2629;50.768;7.308;2022-09-13T13:34:35;3.47;;;1.87;;
5219;SDS011;2629;50.768;7.308;2022-09-13T13:37:20;4.40;;;2.03;;
5219;SDS011;2629;50.768;7.308;2022-09-13T13:40:11;4.10;;;2.00;;
5219;SDS011;2629;50.768;7.308;2022-09-13T13:42:40;5.23;;;1.50;;
5219;SDS011;2629;50.768;7.308;2022-09-13T13:45:18;5.00;;;1.80;;
5219;SDS011;2629;50.768;7.308;2022-09-13T13:50:31;2.57;;;1.50;;
5219;SDS011;2629;50.768;7.308;2022-09-13T13:53:19;3.67;;;1.80;;
5219;SDS011;2629;50.768;7.308;2022-09-13T13:56:03;3.20;;;1.60;;
5219;SDS011;2629;50.768;7.308;2022-09-13T13:58:36;5.43;;;2.03;;
5219;SDS011;2629;50.768;7.308;2022-09-13T14:01:13;3.17;;;1.50;;
5219;SDS011;2629;50.768;7.308;2022-09-13T14:03:48;2.67;;;1.20;;
5219;SDS011;2629;50.768;7.308;2022-09-13T14:06:19;4.70;;;1.80;;
5219;SDS011;2629;50.768;7.308;2022-09-13T14:08:53;2.83;;;1.30;;
5219;SDS011;2629;50.768;7.308;2022-09-13T14:11:37;3.13;;;1.63;;
5219;SDS011;2629;50.768;7.308;2022-09-13T14:14:20;3.27;;;1.50;;
5219;SDS011;2629;50.768;7.308;2022-09-13T14:16:56;5.30;;;1.80;;
5219;SDS011;2629;50.768;7.308;2022-09-13T14:19:27;3.95;;;1.50;;
5219;SDS011;2629;50.768;7.308;2022-09-13T14:22:03;4.63;;;2.00;;
5219;SDS011;2629;50.768;7.308;2022-09-13T14:24:36;11.50;;;2.40;;
5219;SDS011;2629;50.768;7.308;2022-09-13T14:27:14;7.35;;;2.38;;
5219;SDS011;2629;50.768;7.308;2022-09-13T14:29:43;4.32;;;1.75;;
5219;SDS011;2629;50.768;7.308;2022-09-13T14:32:13;2.88;;;1.88;;
5219;SDS011;2629;50.768;7.308;2022-09-13T14:34:51;3.30;;;1.60;;
5219;SDS011;2629;50.768;7.308;2022-09-13T14:37:24;9.53;;;1.80;;
5219;SDS011;2629;50.768;7.308;2022-09-13T14:39:55;6.70;;;2.47;;
5219;SDS011;2629;50.768;7.308;2022-09-13T14:42:25;3.27;;;1.80;;
5219;SDS011;2629;50.768;7.308;2022-09-13T14:44:54;3.00;;;1.63;;
5219;SDS011;2629;50.768;7.308;2022-09-13T14:47:24;2.87;;;1.60;;
5219;SDS011;2629;50.768;7.308;2022-09-13T14:49:57;3.00;;;1.53;;
5219;SDS011;2629;50.768;7.308;2022-09-13T14:52:27;3.87;;;1.70;;
5219;SDS011;2629;50.768;7.308;2022-09-13T14:54:57;10.10;;;1.70;;
5219;SDS011;2629;50.768;7.308;2022-09-13T14:57:30;5.50;;;1.47;;
5219;SDS011;2629;50.768;7.308;2022-09-13T15:00:01;5.37;;;1.60;;
5219;SDS011;2629;50.768;7.308;2022-09-13T15:02:31;2.90;;;1.33;;
5219;SDS011;2629;50.768;7.308;2022-09-13T15:05:04;3.03;;;1.40;;
5219;SDS011;2629;50.768;7.308;2022-09-13T15:07:35;4.73;;;1.90;;
5219;SDS011;2629;50.768;7.308;2022-09-13T15:10:05;3.00;;;1.67;;
5219;SDS011;2629;50.768;7.308;2022-09-13T15:12:36;3.30;;;1.47;;
5219;SDS011;2629;50.768;7.308;2022-09-13T15:17:58;4.27;;;1.87;;
5219;SDS011;2629;50.768;7.308;2022-09-13T15:20:27;3.47;;;1.83;;
5219;SDS011;2629;50.768;7.308;2022-09-13T15:22:56;3.00;;;1.37;;
5219;SDS011;2629;50.768;7.308;2022-09-13T15:25:25;3.97;;;1.53;;
5219;SDS011;2629;50.768;7.308;2022-09-13T15:27:56;6.90;;;1.60;;
5219;SDS011;2629;50.768;7.308;2022-09-13T15:30:26;5.27;;;1.60;;
5219;SDS011;2629;50.768;7.308;2022-09-13T15:33:05;8.83;;;1.40;;
5219;SDS011;2629;50.768;7.308;2022-09-13T15:35:42;4.03;;;1.63;;
5219;SDS011;2629;50.768;7.308;2022-09-13T15:38:24;4.30;;;1.97;;
5219;SDS011;2629;50.768;7.308;2022-09-13T15:40:59;4.67;;;2.00;;
5219;SDS011;2629;50.768;7.308;2022-09-13T15:43:29;3.60;;;1.63;;
5219;SDS011;2629;50.768;7.308;2022-09-13T15:45:58;5.47;;;1.67;;
5219;SDS011;2629;50.768;7.308;2022-09-13T15:48:28;4.03;;;1.60;;
5219;SDS011;2629;50.768;7.308;2022-09-13T15:51:05;3.80;;;1.40;;
5219;SDS011;2629;50.768;7.308;2022-09-13T15:53:35;6.57;;;1.73;;
5219;SDS011;2629;50.768;7.308;2022-09-13T15:56:05;3.87;;;1.87;;
5219;SDS011;2629;50.768;7.308;2022-09-13T15:58:38;5.50;;;1.77;;
5219;SDS011;2629;50.768;7.308;2022-09-13T16:01:08;4.00;;;1.63;;
5219;SDS011;2629;50.768;7.308;2022-09-13T16:03:39;6.23;;;2.30;;
5219;SDS011;2629;50.768;7.308;2022-09-13T16:06:08;6.80;;;1.90;;
5219;SDS011;2629;50.768;7.308;2022-09-13T16:08:37;9.13;;;1.60;;
5219;SDS011;2629;50.768;7.308;2022-09-13T16:11:09;4.87;;;2.10;;
5219;SDS011;2629;50.768;7.308;2022-09-13T16:13:42;9.90;;;2.37;;
5219;SDS011;2629;50.768;7.308;2022-09-13T16:16:12;6.20;;;2.30;;
5219;SDS011;2629;50.768;7.308;2022-09-13T16:18:41;4.70;;;2.60;;
5219;SDS011;2629;50.768;7.308;2022-09-13T16:21:09;6.13;;;2.80;;
5219;SDS011;2629;50.768;7.308;2022-09-13T16:23:38;4.20;;;2.60;;